createdAt,value
2022-12-09T00:00:09.217Z,1.03
2022-12-09T00:02:39.563Z,1.08
2022-12-09T00:05:08.767Z,1.12
2022-12-09T00:07:38.145Z,1.14
2022-12-09T00:10:08.215Z,1.17
2022-12-09T00:12:36.963Z,1.20
2022-12-09T00:15:06.187Z,1.20
2022-12-09T00:17:34.972Z,1.18
2022-12-09T00:20:06.230Z,1.14
2022-12-09T00:22:34.944Z,1.12
2022-12-09T00:25:03.253Z,1.06
2022-12-09T00:27:31.609Z,0.98
2022-12-09T00:29:59.952Z,0.92
2022-12-09T00:32:28.368Z,0.90
2022-12-09T00:34:56.831Z,0.90
2022-12-09T00:37:26.850Z,0.88
2022-12-09T00:39:55.422Z,0.92
2022-12-09T00:42:23.751Z,0.97
2022-12-09T00:44:52.295Z,1.00
2022-12-09T00:47:20.875Z,1.00
2022-12-09T00:49:49.292Z,0.97
2022-12-09T00:52:17.754Z,0.95
2022-12-09T00:54:47.467Z,0.96
2022-12-09T00:57:15.838Z,0.98
2022-12-09T00:59:44.182Z,0.99
2022-12-09T01:02:12.963Z,1.00
2022-12-09T01:04:41.417Z,1.01
2022-12-09T01:07:11.408Z,1.03
2022-12-09T01:09:39.769Z,1.05
2022-12-09T01:12:09.704Z,1.05
2022-12-09T01:14:38.036Z,1.05
2022-12-09T01:17:06.607Z,1.05
2022-12-09T01:19:35.448Z,1.05
2022-12-09T01:22:04.104Z,1.07
2022-12-09T01:24:32.484Z,1.04
2022-12-09T01:27:00.825Z,1.03
2022-12-09T01:29:30.528Z,1.04
2022-12-09T01:31:59.114Z,1.06
2022-12-09T01:34:27.711Z,1.08
2022-12-09T01:36:56.266Z,1.10
2022-12-09T01:39:24.850Z,1.14
2022-12-09T01:41:53.530Z,1.13
2022-12-09T01:44:23.706Z,1.13
2022-12-09T01:46:56.110Z,1.10
2022-12-09T01:49:28.912Z,1.07
2022-12-09T01:52:02.841Z,1.07
2022-12-09T01:54:33.086Z,1.06
2022-12-09T01:57:01.789Z,1.09
2022-12-09T01:59:30.874Z,1.07
2022-12-09T02:02:03.532Z,1.04
2022-12-09T02:04:35.856Z,1.05
2022-12-09T02:07:09.400Z,1.09
2022-12-09T02:09:38.131Z,1.12
2022-12-09T02:12:15.398Z,1.15
2022-12-09T02:14:50.613Z,1.16
2022-12-09T02:17:28.847Z,1.16
2022-12-09T02:20:06.391Z,1.16
2022-12-09T02:22:39.662Z,1.18
2022-12-09T02:25:19.290Z,1.20
2022-12-09T02:27:52.016Z,1.20
2022-12-09T02:30:22.618Z,1.20
2022-12-09T02:33:19.940Z,1.20
2022-12-09T02:35:55.138Z,1.19
2022-12-09T02:38:27.630Z,1.16
2022-12-09T02:41:01.458Z,1.15
2022-12-09T02:43:33.569Z,1.15
2022-12-09T02:46:04.228Z,1.16
2022-12-09T02:48:36.389Z,1.17
2022-12-09T02:51:10.084Z,1.18
2022-12-09T02:53:40.204Z,1.18
2022-12-09T02:56:10.525Z,1.16
2022-12-09T02:58:38.864Z,1.16
2022-12-09T03:01:07.557Z,1.15
2022-12-09T03:03:36.179Z,1.12
2022-12-09T03:06:09.627Z,1.11
2022-12-09T03:08:45.871Z,1.13
2022-12-09T03:11:17.279Z,1.15
2022-12-09T03:13:53.367Z,1.14
2022-12-09T03:16:31.064Z,1.13
2022-12-09T03:19:05.321Z,1.11
2022-12-09T03:21:39.067Z,1.05
2022-12-09T03:24:11.538Z,1.04
2022-12-09T03:26:43.041Z,1.02
2022-12-09T03:29:18.307Z,1.03
2022-12-09T03:31:48.557Z,1.02
2022-12-09T03:34:20.997Z,1.01
2022-12-09T03:36:53.962Z,1.00
2022-12-09T03:39:29.207Z,0.84
2022-12-09T03:42:02.508Z,0.68
2022-12-09T03:44:38.182Z,0.65
2022-12-09T03:47:08.041Z,0.64
2022-12-09T03:49:38.977Z,0.67
2022-12-09T03:52:13.423Z,0.74
2022-12-09T03:54:44.778Z,0.80
2022-12-09T03:57:18.699Z,0.85
2022-12-09T03:59:53.569Z,0.88
2022-12-09T04:02:22.653Z,0.92
2022-12-09T04:04:52.328Z,0.92
2022-12-09T04:07:22.292Z,0.92
2022-12-09T04:09:50.727Z,0.83
2022-12-09T04:12:19.509Z,0.67
2022-12-09T04:14:47.982Z,0.64
2022-12-09T04:17:16.313Z,0.66
2022-12-09T04:19:44.675Z,0.66
2022-12-09T04:22:13.402Z,0.61
2022-12-09T04:24:43.447Z,0.61
2022-12-09T04:27:12.591Z,0.61
2022-12-09T04:29:41.338Z,0.62
2022-12-09T04:32:09.728Z,0.64
2022-12-09T04:34:38.370Z,0.66
2022-12-09T04:37:06.765Z,0.66
2022-12-09T04:39:35.357Z,0.66
2022-12-09T04:42:05.144Z,0.67
2022-12-09T04:44:35.803Z,0.68
2022-12-09T04:47:04.730Z,0.64
2022-12-09T04:49:33.569Z,0.67
2022-12-09T04:52:03.244Z,0.64
2022-12-09T04:54:33.141Z,0.64
2022-12-09T04:57:01.770Z,0.64
2022-12-09T04:59:33.168Z,0.64
2022-12-09T05:02:01.679Z,0.64
2022-12-09T05:04:30.430Z,0.63
2022-12-09T05:06:59.414Z,0.65
2022-12-09T05:09:28.010Z,0.65
2022-12-09T05:11:58.120Z,0.63
2022-12-09T05:14:26.920Z,0.63
2022-12-09T05:16:56.948Z,0.66
2022-12-09T05:19:25.758Z,0.68
2022-12-09T05:21:54.619Z,0.68
2022-12-09T05:24:23.069Z,0.67
2022-12-09T05:26:51.886Z,0.62
2022-12-09T05:29:23.052Z,0.62
2022-12-09T05:31:52.806Z,0.63
2022-12-09T05:34:22.962Z,0.63
2022-12-09T05:36:51.887Z,0.64
2022-12-09T05:39:20.435Z,0.63
2022-12-09T05:41:49.560Z,0.63
2022-12-09T05:44:18.279Z,0.63
2022-12-09T05:46:47.767Z,0.61
2022-12-09T05:49:16.317Z,0.53
2022-12-09T05:51:46.175Z,0.44
2022-12-09T05:54:14.701Z,0.42
2022-12-09T05:56:48.072Z,0.45
2022-12-09T05:59:17.708Z,0.51
2022-12-09T06:01:46.377Z,0.54
2022-12-09T06:04:15.445Z,0.58
2022-12-09T06:06:44.274Z,0.62
2022-12-09T06:09:14.303Z,0.63
2022-12-09T06:11:43.120Z,0.63
2022-12-09T06:14:12.745Z,0.63
2022-12-09T06:16:41.525Z,0.57
2022-12-09T06:19:11.529Z,0.56
2022-12-09T06:21:41.635Z,0.58
2022-12-09T06:24:10.577Z,0.59
2022-12-09T06:26:40.558Z,0.62
2022-12-09T06:29:09.920Z,0.62
2022-12-09T06:31:38.654Z,0.62
2022-12-09T06:34:07.621Z,0.59
2022-12-09T06:36:36.309Z,0.60
2022-12-09T06:39:10.146Z,0.61
2022-12-09T06:41:42.138Z,0.63
2022-12-09T06:44:13.553Z,0.66
2022-12-09T06:46:45.745Z,0.70
2022-12-09T06:49:14.416Z,0.67
2022-12-09T06:51:42.898Z,0.51
2022-12-09T06:54:11.630Z,0.42
2022-12-09T06:56:41.387Z,0.44
2022-12-09T06:59:11.322Z,0.45
2022-12-09T07:01:40.245Z,0.45
2022-12-09T07:04:09.371Z,0.48
2022-12-09T07:06:39.684Z,0.54
2022-12-09T07:09:10.733Z,0.56
2022-12-09T07:11:40.366Z,0.57
2022-12-09T07:14:10.749Z,0.52
2022-12-09T07:16:39.974Z,0.47
2022-12-09T07:19:09.393Z,0.49
2022-12-09T07:21:38.378Z,0.51
2022-12-09T07:24:07.713Z,0.57
2022-12-09T07:26:36.467Z,0.62
2022-12-09T07:29:06.596Z,0.66
2022-12-09T07:31:38.965Z,0.72
2022-12-09T07:34:07.629Z,0.76
2022-12-09T07:36:38.021Z,0.81
2022-12-09T07:39:09.091Z,0.84
2022-12-09T07:41:37.559Z,0.85
2022-12-09T07:44:06.359Z,0.86
2022-12-09T07:46:36.638Z,0.86
2022-12-09T07:49:07.261Z,0.85
2022-12-09T07:51:36.239Z,0.88
2022-12-09T07:54:05.488Z,0.89
2022-12-09T07:56:34.345Z,0.85
2022-12-09T07:59:02.910Z,0.82
2022-12-09T08:01:31.677Z,0.86
2022-12-09T08:04:02.521Z,0.87
2022-12-09T08:06:32.207Z,0.92
2022-12-09T08:09:02.191Z,0.97
2022-12-09T08:11:33.322Z,1.00
2022-12-09T08:14:09.261Z,1.05
2022-12-09T08:16:40.503Z,1.08
2022-12-09T08:19:11.173Z,1.10
2022-12-09T08:21:39.842Z,1.07
2022-12-09T08:24:09.510Z,1.03
2022-12-09T08:26:39.465Z,0.97
2022-12-09T08:29:10.363Z,0.95
2022-12-09T08:31:42.282Z,0.99
2022-12-09T08:34:13.315Z,1.04
2022-12-09T08:36:42.500Z,1.05
2022-12-09T08:39:12.338Z,1.03
2022-12-09T08:41:41.211Z,1.01
2022-12-09T08:44:11.966Z,1.01
2022-12-09T08:46:43.638Z,1.05
2022-12-09T08:49:18.095Z,1.09
2022-12-09T08:51:48.600Z,1.16
2022-12-09T08:54:17.370Z,1.17
2022-12-09T08:56:47.607Z,1.22
2022-12-09T08:59:17.017Z,1.27
2022-12-09T09:01:46.104Z,1.31
2022-12-09T09:04:19.410Z,1.34
2022-12-09T09:06:50.772Z,1.37
2022-12-09T09:09:21.738Z,1.40
2022-12-09T09:11:51.193Z,1.37
2022-12-09T09:14:20.071Z,1.31
2022-12-09T09:16:49.099Z,1.30
2022-12-09T09:19:21.611Z,1.27
2022-12-09T09:21:50.879Z,1.27
2022-12-09T09:24:22.259Z,1.32
2022-12-09T09:26:52.420Z,1.34
2022-12-09T09:29:23.050Z,1.37
2022-12-09T09:31:54.518Z,1.42
2022-12-09T09:34:25.891Z,1.54
2022-12-09T09:36:54.845Z,1.54
2022-12-09T09:39:24.153Z,1.57
2022-12-09T09:41:57.402Z,1.66
2022-12-09T09:44:33.086Z,1.74
2022-12-09T09:47:03.117Z,1.82
2022-12-09T09:49:37.578Z,1.83
2022-12-09T09:52:09.596Z,1.83
2022-12-09T09:54:38.581Z,1.84
2022-12-09T09:57:15.153Z,1.85
2022-12-09T10:00:05.086Z,1.85
2022-12-09T10:02:58.078Z,1.96
2022-12-09T10:05:31.782Z,2.05
2022-12-09T10:08:16.447Z,2.07
2022-12-09T10:10:56.676Z,2.07
2022-12-09T10:13:37.656Z,2.15
2022-12-09T10:16:15.682Z,2.26
2022-12-09T10:19:04.061Z,2.33
2022-12-09T10:21:41.298Z,2.31
2022-12-09T10:24:22.171Z,2.23
2022-12-09T10:26:59.465Z,2.19
2022-12-09T10:29:42.782Z,2.10
2022-12-09T10:32:17.114Z,2.03
2022-12-09T10:34:46.822Z,1.94
2022-12-09T10:37:26.092Z,1.92
2022-12-09T10:40:03.150Z,1.93
2022-12-09T10:43:02.882Z,1.89
2022-12-09T10:45:45.986Z,1.88
2022-12-09T10:48:22.597Z,1.85
2022-12-09T10:50:58.459Z,1.83
2022-12-09T10:53:29.948Z,1.76
2022-12-09T10:56:00.899Z,1.73
2022-12-09T10:58:33.962Z,1.68
2022-12-09T11:01:14.028Z,1.69
2022-12-09T11:03:49.893Z,1.70
2022-12-09T11:06:26.115Z,1.74
2022-12-09T11:08:58.947Z,1.74
2022-12-09T11:11:44.638Z,1.70
2022-12-09T11:14:24.030Z,1.69
2022-12-09T11:16:54.583Z,1.67
2022-12-09T11:19:35.121Z,1.65
2022-12-09T11:22:24.003Z,1.65
2022-12-09T11:24:56.663Z,1.70
2022-12-09T11:27:30.305Z,1.70
2022-12-09T11:30:14.660Z,1.65
2022-12-09T11:32:57.815Z,1.68
2022-12-09T11:35:33.430Z,1.73
2022-12-09T11:38:16.294Z,1.66
2022-12-09T11:41:00.272Z,1.64
2022-12-09T11:43:39.307Z,1.64
2022-12-09T11:46:19.538Z,1.68
2022-12-09T11:48:57.311Z,1.76
2022-12-09T11:51:30.326Z,1.83
2022-12-09T11:54:03.878Z,1.82
2022-12-09T11:56:35.808Z,1.81
2022-12-09T11:59:07.657Z,1.81
2022-12-09T12:01:46.893Z,1.77
2022-12-09T12:04:18.869Z,1.81
2022-12-09T12:06:49.704Z,1.83
2022-12-09T12:09:24.534Z,1.82
2022-12-09T12:12:04.283Z,1.85
2022-12-09T12:14:32.663Z,1.85
2022-12-09T12:17:10.609Z,1.85
2022-12-09T12:19:40.876Z,1.86
2022-12-09T12:22:37.380Z,1.89
2022-12-09T12:25:24.474Z,1.90
2022-12-09T12:28:16.377Z,1.86
2022-12-09T12:30:51.687Z,1.84
2022-12-09T12:34:07.925Z,1.82
2022-12-09T12:36:39.714Z,1.85
2022-12-09T12:39:19.855Z,1.90
2022-12-09T12:41:53.567Z,1.95
2022-12-09T12:44:54.249Z,1.96
2022-12-09T12:47:28.105Z,1.96
2022-12-09T12:50:28.829Z,1.99
2022-12-09T12:53:04.285Z,2.04
2022-12-09T12:55:50.243Z,2.05
2022-12-09T12:58:33.930Z,2.05
2022-12-09T13:01:15.314Z,2.06
2022-12-09T13:03:53.627Z,2.05
2022-12-09T13:06:36.551Z,2.03
2022-12-09T13:09:10.660Z,2.02
2022-12-09T13:11:48.092Z,1.98
2022-12-09T13:14:22.940Z,1.97
2022-12-09T13:16:54.153Z,1.92
2022-12-09T13:19:27.665Z,1.83
2022-12-09T13:21:57.254Z,1.82
2022-12-09T13:24:32.035Z,1.84
2022-12-09T13:27:04.871Z,1.88
2022-12-09T13:29:44.023Z,1.95
2022-12-09T13:32:28.166Z,2.01
2022-12-09T13:35:03.518Z,2.05
2022-12-09T13:37:58.969Z,2.10
2022-12-09T13:40:31.710Z,2.13
2022-12-09T13:43:13.803Z,2.13
2022-12-09T13:45:51.432Z,2.15
2022-12-09T13:48:54.906Z,2.13
2022-12-09T13:51:27.496Z,2.10
2022-12-09T13:54:03.746Z,2.07
2022-12-09T13:56:35.616Z,2.07
2022-12-09T13:59:33.931Z,2.08
2022-12-09T14:02:10.971Z,2.08
2022-12-09T14:04:52.312Z,2.08
2022-12-09T14:07:32.899Z,2.07
2022-12-09T14:10:01.508Z,2.09
2022-12-09T14:13:07.037Z,2.10
2022-12-09T14:15:38.085Z,2.10
2022-12-09T14:18:28.095Z,2.08
2022-12-09T14:21:38.910Z,2.06
2022-12-09T14:24:36.613Z,2.03
2022-12-09T14:27:14.610Z,1.99
2022-12-09T14:29:50.048Z,1.98
2022-12-09T14:32:24.779Z,1.93
2022-12-09T14:35:17.178Z,1.92
2022-12-09T14:38:21.744Z,1.93
2022-12-09T14:41:02.486Z,1.89
2022-12-09T14:43:50.491Z,1.74
2022-12-09T14:46:26.923Z,1.63
2022-12-09T14:48:58.716Z,1.53
2022-12-09T14:51:34.178Z,1.51
2022-12-09T14:54:06.425Z,1.46
2022-12-09T14:56:36.227Z,1.45
2022-12-09T14:59:08.322Z,1.42
2022-12-09T15:01:53.874Z,1.42
2022-12-09T15:04:25.053Z,1.43
2022-12-09T15:07:14.330Z,1.37
2022-12-09T15:09:54.191Z,1.32
2022-12-09T15:12:27.363Z,1.28
2022-12-09T15:14:59.744Z,1.28
2022-12-09T15:17:31.479Z,1.30
2022-12-09T15:20:12.123Z,1.28
2022-12-09T15:22:40.712Z,1.30
2022-12-09T15:25:18.092Z,1.33
2022-12-09T15:28:01.225Z,1.35
2022-12-09T15:30:33.661Z,1.36
2022-12-09T15:34:02.460Z,1.42
2022-12-09T15:36:37.031Z,1.37
2022-12-09T15:39:07.886Z,1.34
2022-12-09T15:41:59.832Z,1.40
2022-12-09T15:44:33.159Z,1.44
2022-12-09T15:47:10.293Z,1.42
2022-12-09T15:49:44.501Z,1.46
2022-12-09T15:52:15.144Z,1.47
2022-12-09T15:54:46.067Z,1.44
2022-12-09T15:57:18.162Z,1.42
2022-12-09T15:59:56.037Z,1.43
2022-12-09T16:02:29.593Z,1.38
2022-12-09T16:05:01.425Z,1.38
2022-12-09T16:07:32.798Z,1.34
2022-12-09T16:10:07.528Z,1.41
2022-12-09T16:12:37.217Z,1.44
2022-12-09T16:15:10.274Z,1.45
2022-12-09T16:17:52.313Z,1.47
2022-12-09T16:20:23.242Z,1.46
2022-12-09T16:22:52.207Z,1.44
2022-12-09T16:25:23.303Z,1.45
2022-12-09T16:27:58.771Z,1.46
2022-12-09T16:30:31.099Z,1.44
2022-12-09T16:33:00.967Z,1.44
2022-12-09T16:35:34.639Z,1.50
2022-12-09T16:38:26.753Z,1.52
2022-12-09T16:41:12.686Z,1.56
2022-12-09T16:43:59.256Z,1.56
2022-12-09T16:46:41.314Z,1.54
2022-12-09T16:49:10.059Z,1.51
2022-12-09T16:51:39.495Z,1.41
2022-12-09T16:54:20.160Z,1.41
2022-12-09T16:56:49.883Z,1.47
2022-12-09T16:59:19.219Z,1.51
2022-12-09T17:01:49.668Z,1.57
2022-12-09T17:04:21.476Z,1.61
2022-12-09T17:06:49.841Z,1.63
2022-12-09T17:09:19.038Z,1.63
2022-12-09T17:11:49.189Z,1.67
2022-12-09T17:14:18.354Z,1.68
2022-12-09T17:16:46.779Z,1.70
2022-12-09T17:19:16.528Z,1.67
2022-12-09T17:21:45.068Z,1.65
2022-12-09T17:24:13.721Z,1.66
2022-12-09T17:26:42.083Z,1.65
2022-12-09T17:29:10.454Z,1.62
2022-12-09T17:31:38.857Z,1.60
2022-12-09T17:34:07.293Z,1.53
2022-12-09T17:36:37.008Z,1.50
2022-12-09T17:39:06.175Z,1.43
2022-12-09T17:41:34.720Z,1.45
2022-12-09T17:44:03.075Z,1.48
2022-12-09T17:46:31.604Z,1.52
2022-12-09T17:49:09.120Z,1.49
2022-12-09T17:51:38.831Z,1.48
2022-12-09T17:54:07.308Z,1.51
2022-12-09T17:56:35.686Z,1.54
2022-12-09T17:59:07.355Z,1.56
2022-12-09T18:01:37.153Z,1.54
2022-12-09T18:04:09.615Z,1.57
2022-12-09T18:06:41.580Z,1.59
2022-12-09T18:09:11.900Z,1.57
2022-12-09T18:11:40.536Z,1.61
2022-12-09T18:14:09.832Z,1.61
2022-12-09T18:16:38.666Z,1.62
2022-12-09T18:19:10.245Z,1.62
2022-12-09T18:21:40.161Z,1.65
2022-12-09T18:24:09.517Z,1.70
2022-12-09T18:26:41.691Z,1.68
2022-12-09T18:29:11.309Z,1.67
2022-12-09T18:31:39.666Z,1.71
2022-12-09T18:34:08.615Z,1.77
2022-12-09T18:36:37.095Z,1.81
2022-12-09T18:39:07.522Z,1.83
2022-12-09T18:41:36.335Z,1.85
2022-12-09T18:44:07.880Z,1.86
2022-12-09T18:46:38.421Z,1.88
2022-12-09T18:49:08.621Z,1.88
2022-12-09T18:51:38.927Z,1.88
2022-12-09T18:54:09.448Z,1.90
2022-12-09T18:56:37.845Z,1.93
2022-12-09T18:59:07.871Z,1.90
2022-12-09T19:01:40.442Z,1.85
2022-12-09T19:04:14.211Z,1.84
2022-12-09T19:06:44.677Z,1.81
2022-12-09T19:09:17.039Z,1.81
2022-12-09T19:11:47.751Z,1.83
2022-12-09T19:14:18.226Z,1.83
2022-12-09T19:16:47.379Z,1.86
2022-12-09T19:19:17.592Z,1.85
2022-12-09T19:21:46.788Z,1.85
2022-12-09T19:24:18.450Z,1.86
2022-12-09T19:26:47.156Z,1.87
2022-12-09T19:29:17.728Z,1.89
2022-12-09T19:31:48.198Z,1.86
2022-12-09T19:34:18.519Z,1.85
2022-12-09T19:36:49.043Z,1.83
2022-12-09T19:39:20.678Z,1.82
2022-12-09T19:41:49.454Z,1.82
2022-12-09T19:44:37.177Z,1.80
2022-12-09T19:47:08.781Z,1.80
2022-12-09T19:49:37.653Z,1.79
2022-12-09T19:52:11.595Z,1.78
2022-12-09T19:54:41.405Z,1.77
2022-12-09T19:57:12.041Z,1.79
2022-12-09T19:59:40.442Z,1.79
2022-12-09T20:02:11.995Z,1.79
2022-12-09T20:04:50.138Z,1.76
2022-12-09T20:07:19.137Z,1.73
2022-12-09T20:09:49.549Z,1.68
2022-12-09T20:12:17.999Z,1.68
2022-12-09T20:14:46.411Z,1.69
2022-12-09T20:17:16.612Z,1.71
2022-12-09T20:19:45.139Z,1.74
2022-12-09T20:22:13.561Z,1.74
2022-12-09T20:24:43.324Z,1.76
2022-12-09T20:27:13.170Z,1.76
2022-12-09T20:29:41.558Z,1.76
2022-12-09T20:32:10.380Z,1.74
2022-12-09T20:34:39.145Z,1.75
2022-12-09T20:37:07.633Z,1.70
2022-12-09T20:39:36.012Z,1.70
2022-12-09T20:42:04.556Z,1.71
2022-12-09T20:44:34.292Z,1.73
2022-12-09T20:47:02.648Z,1.74
2022-12-09T20:49:31.380Z,1.74
2022-12-09T20:51:59.886Z,1.75
2022-12-09T20:54:28.271Z,1.75
2022-12-09T20:56:56.631Z,1.77
2022-12-09T20:59:25.334Z,1.76
2022-12-09T21:01:55.945Z,1.75
2022-12-09T21:04:24.481Z,1.77
2022-12-09T21:06:53.083Z,1.80
2022-12-09T21:09:24.831Z,1.82
2022-12-09T21:11:53.758Z,1.84
2022-12-09T21:14:23.446Z,1.85
2022-12-09T21:16:55.474Z,1.86
2022-12-09T21:19:25.865Z,1.87
2022-12-09T21:21:54.630Z,1.88
2022-12-09T21:24:24.624Z,1.89
2022-12-09T21:26:56.016Z,1.88
2022-12-09T21:29:31.349Z,1.88
2022-12-09T21:32:02.768Z,1.89
2022-12-09T21:34:31.686Z,1.89
2022-12-09T21:37:00.045Z,1.89
2022-12-09T21:39:29.224Z,1.89
2022-12-09T21:41:57.765Z,1.88
2022-12-09T21:44:27.156Z,1.87
2022-12-09T21:46:55.632Z,1.84
2022-12-09T21:49:25.409Z,1.83
2022-12-09T21:51:54.782Z,1.84
2022-12-09T21:54:23.226Z,1.84
2022-12-09T21:56:51.786Z,1.83
2022-12-09T21:59:20.322Z,1.84
2022-12-09T22:01:48.787Z,1.85
2022-12-09T22:04:18.588Z,1.85
2022-12-09T22:06:49.918Z,1.83
2022-12-09T22:09:21.047Z,1.81
2022-12-09T22:11:49.479Z,1.82
2022-12-09T22:14:18.007Z,1.82
2022-12-09T22:16:47.243Z,1.82
2022-12-09T22:19:17.187Z,1.85
2022-12-09T22:21:45.945Z,1.88
2022-12-09T22:24:16.155Z,1.89
2022-12-09T22:26:45.209Z,1.90
2022-12-09T22:29:15.144Z,1.91
2022-12-09T22:31:44.443Z,1.91
2022-12-09T22:34:15.130Z,1.93
2022-12-09T22:36:43.727Z,1.94
2022-12-09T22:39:15.711Z,1.93
2022-12-09T22:41:45.926Z,1.96
2022-12-09T22:44:17.215Z,1.95
2022-12-09T22:46:46.104Z,1.96
2022-12-09T22:49:16.667Z,1.95
2022-12-09T22:51:46.011Z,1.95
2022-12-09T22:54:16.358Z,1.96
2022-12-09T22:56:45.675Z,1.95
2022-12-09T22:59:14.920Z,1.94
2022-12-09T23:01:45.138Z,1.93
2022-12-09T23:04:14.903Z,1.94
2022-12-09T23:06:43.928Z,1.95
2022-12-09T23:09:21.292Z,1.95
2022-12-09T23:11:49.851Z,1.97
2022-12-09T23:14:18.721Z,1.97
2022-12-09T23:16:47.381Z,1.97
2022-12-09T23:19:15.750Z,1.98
2022-12-09T23:21:44.192Z,1.99
2022-12-09T23:24:22.819Z,2.00
2022-12-09T23:26:55.252Z,1.99
2022-12-09T23:29:23.779Z,1.97
2022-12-09T23:31:52.207Z,1.96
2022-12-09T23:34:20.692Z,1.96
2022-12-09T23:36:49.084Z,1.94
2022-12-09T23:39:19.532Z,1.92
2022-12-09T23:41:48.883Z,1.92
2022-12-09T23:44:19.899Z,1.93
2022-12-09T23:46:48.639Z,1.93
2022-12-09T23:49:17.693Z,1.89
2022-12-09T23:51:46.180Z,1.88
2022-12-09T23:54:16.282Z,1.86
2022-12-09T23:56:49.574Z,1.87
2022-12-09T23:59:21.333Z,1.87
